Time;durP1;ratioP1;P1;durP2;ratioP2;P2;SDS_P1;SDS_P2;PMS_P1;PMS_P2;Temp;Humidity;BMP_temperature;BMP_pressure;BME280_temperature;BME280_humidity;BME280_pressure;Samples;Min_cycle;Max_cycle;Signal;HPM_P1;HPM_P2
2023/12/22 00:00:25;;;;;;;20.08;3.08;;;;;;;;;;4966805;28;98250;-76
2023/12/22 00:02:51;;;;;;;6.00;2.38;;;;;;;;;;4967961;28;99504;-75
2023/12/22 00:05:18;;;;;;;3.63;1.38;;;;;;;;;;4967354;28;99935;-74
2023/12/22 00:07:44;;;;;;;17.63;3.28;;;;;;;;;;4967623;28;98218;-76
2023/12/22 00:10:11;;;;;;;3.55;1.73;;;;;;;;;;4967659;28;99387;-77
2023/12/22 00:12:40;;;;;;;3.88;1.20;;;;;;;;;;4967414;28;100139;-76
2023/12/22 00:15:07;;;;;;;4.93;1.65;;;;;;;;;;4967390;28;98283;-75
2023/12/22 00:17:33;;;;;;;8.13;1.73;;;;;;;;;;4967008;28;99815;-75
2023/12/22 00:20:03;;;;;;;6.63;1.52;;;;;;;;;;4970205;28;100059;-75
2023/12/22 00:22:30;;;;;;;6.57;1.05;;;;;;;;;;4967910;28;99800;-75
2023/12/22 00:24:57;;;;;;;10.00;1.30;;;;;;;;;;4971716;28;100106;-75
2023/12/22 00:27:23;;;;;;;2.42;1.08;;;;;;;;;;4978992;28;99245;-77
2023/12/22 00:29:50;;;;;;;5.70;1.70;;;;;;;;;;4980825;28;99577;-76
2023/12/22 00:32:16;;;;;;;6.30;2.00;;;;;;;;;;4975588;28;100301;-77
2023/12/22 00:34:42;;;;;;;6.30;1.60;;;;;;;;;;4984788;28;98225;-75
2023/12/22 00:37:09;;;;;;;14.50;2.67;;;;;;;;;;4985235;28;98449;-74
2023/12/22 00:39:35;;;;;;;3.83;1.52;;;;;;;;;;4978542;28;99107;-75
2023/12/22 00:42:04;;;;;;;1.55;1.00;;;;;;;;;;4976717;28;98283;-75
2023/12/22 00:44:30;;;;;;;1.25;1.15;;;;;;;;;;4974403;28;99909;-77
2023/12/22 00:46:57;;;;;;;7.43;2.03;;;;;;;;;;4985335;28;98356;-75
2023/12/22 00:49:23;;;;;;;6.20;1.15;;;;;;;;;;4975237;28;99504;-74
2023/12/22 00:51:50;;;;;;;5.70;1.63;;;;;;;;;;4982912;28;99947;-75
2023/12/22 00:54:16;;;;;;;1.50;1.40;;;;;;;;;;4985494;28;98237;-75
2023/12/22 00:56:43;;;;;;;7.10;1.38;;;;;;;;;;4986350;28;99560;-75
2023/12/22 00:59:09;;;;;;;5.30;1.25;;;;;;;;;;4975851;28;99796;-75
2023/12/22 01:01:37;;;;;;;5.63;1.60;;;;;;;;;;4986386;28;98313;-75
2023/12/22 01:04:04;;;;;;;13.80;1.92;;;;;;;;;;4989068;28;99488;-76
2023/12/22 01:06:30;;;;;;;10.00;1.77;;;;;;;;;;4969402;28;99762;-75
2023/12/22 01:08:58;;;;;;;2.58;1.08;;;;;;;;;;4976193;28;98713;-75
2023/12/22 01:11:24;;;;;;;9.95;2.10;;;;;;;;;;4964726;28;99257;-74
2023/12/22 01:13:50;;;;;;;11.32;1.80;;;;;;;;;;4966652;28;98341;-75
2023/12/22 01:16:19;;;;;;;13.23;1.95;;;;;;;;;;4965951;28;99977;-75
2023/12/22 01:18:46;;;;;;;9.57;1.55;;;;;;;;;;4967406;28;100063;-75
2023/12/22 01:21:12;;;;;;;3.53;1.90;;;;;;;;;;4947055;28;98255;-75
2023/12/22 01:23:39;;;;;;;17.63;3.30;;;;;;;;;;4950391;28;98532;-75
2023/12/22 01:26:05;;;;;;;11.98;2.05;;;;;;;;;;4948072;28;98333;-75
2023/12/22 01:28:33;;;;;;;6.20;2.15;;;;;;;;;;4947639;28;98468;-76
2023/12/22 01:30:59;;;;;;;4.55;1.42;;;;;;;;;;4946025;28;100003;-75
2023/12/22 01:33:26;;;;;;;4.80;1.17;;;;;;;;;;4966458;28;98280;-75
2023/12/22 01:35:52;;;;;;;7.55;2.28;;;;;;;;;;4967478;28;98662;-75
2023/12/22 01:38:19;;;;;;;6.28;1.50;;;;;;;;;;4967501;28;99831;-75
2023/12/22 01:40:45;;;;;;;8.02;0.88;;;;;;;;;;4970296;28;98315;-75
2023/12/22 01:43:13;;;;;;;11.55;1.60;;;;;;;;;;4970043;28;99556;-75
2023/12/22 01:45:43;;;;;;;6.82;1.27;;;;;;;;;;4971305;28;100072;-73
2023/12/22 01:48:10;;;;;;;6.50;1.30;;;;;;;;;;4976587;28;99632;-76
2023/12/22 01:50:36;;;;;;;2.63;1.60;;;;;;;;;;4988735;28;99991;-76
2023/12/22 01:53:03;;;;;;;11.80;2.90;;;;;;;;;;4986441;28;98356;-75
2023/12/22 01:55:30;;;;;;;10.95;2.20;;;;;;;;;;4973547;28;99679;-75
2023/12/22 01:57:56;;;;;;;6.47;2.15;;;;;;;;;;4978948;28;98939;-74
2023/12/22 02:00:24;;;;;;;7.10;1.45;;;;;;;;;;4987289;28;98145;-75
2023/12/22 02:02:52;;;;;;;4.68;1.52;;;;;;;;;;4977815;28;98895;-76
2023/12/22 02:05:18;;;;;;;4.93;1.75;;;;;;;;;;4973986;28;99862;-75
2023/12/22 02:07:45;;;;;;;10.32;2.45;;;;;;;;;;4972007;28;98633;-76
2023/12/22 02:10:12;;;;;;;15.07;2.25;;;;;;;;;;4986868;28;100011;-75
2023/12/22 02:12:38;;;;;;;15.15;2.17;;;;;;;;;;4979630;28;98627;-75
2023/12/22 02:15:05;;;;;;;13.75;2.80;;;;;;;;;;4968358;28;99440;-75
2023/12/22 02:17:41;;;;;;;11.57;3.05;;;;;;;;;;4968407;28;99851;-74
2023/12/22 02:20:09;;;;;;;9.88;2.22;;;;;;;;;;4978836;28;98190;-74
2023/12/22 02:22:35;;;;;;;9.10;3.40;;;;;;;;;;4988550;28;98846;-74
2023/12/22 02:25:02;;;;;;;13.25;3.13;;;;;;;;;;4987027;28;99023;-74
2023/12/22 02:27:44;;;;;;;12.95;3.10;;;;;;;;;;4988630;28;98236;-75
2023/12/22 02:30:11;;;;;;;8.07;1.83;;;;;;;;;;4981025;28;99627;-75
2023/12/22 02:32:40;;;;;;;11.85;2.75;;;;;;;;;;4971144;28;98356;-75
2023/12/22 02:35:09;;;;;;;12.38;2.72;;;;;;;;;;4966151;28;99464;-75
2023/12/22 02:37:37;;;;;;;12.55;3.13;;;;;;;;;;4968980;28;100512;-77
2023/12/22 02:40:04;;;;;;;11.70;2.70;;;;;;;;;;4968950;28;98891;-75
2023/12/22 02:42:32;;;;;;;23.50;3.80;;;;;;;;;;4969310;28;99494;-75
2023/12/22 02:44:59;;;;;;;13.00;3.00;;;;;;;;;;4978496;28;98908;-74
2023/12/22 02:47:27;;;;;;;22.45;3.03;;;;;;;;;;4988488;28;98388;-75
2023/12/22 02:49:54;;;;;;;19.02;2.67;;;;;;;;;;4989311;28;100008;-73
2023/12/22 02:52:21;;;;;;;13.05;3.20;;;;;;;;;;4992604;28;99317;-74
2023/12/22 02:54:47;;;;;;;19.63;3.10;;;;;;;;;;4971245;28;99450;-74
2023/12/22 02:57:14;;;;;;;12.95;2.72;;;;;;;;;;4969087;28;99315;-76
2023/12/22 02:59:40;;;;;;;12.63;2.78;;;;;;;;;;4969700;28;98286;-74
2023/12/22 03:02:06;;;;;;;15.20;3.17;;;;;;;;;;4968690;28;99531;-74
2023/12/22 03:04:34;;;;;;;18.95;3.90;;;;;;;;;;4968358;28;99904;-75
2023/12/22 03:07:01;;;;;;;19.35;3.47;;;;;;;;;;4965603;28;98515;-74
2023/12/22 03:09:27;;;;;;;22.50;3.33;;;;;;;;;;4967258;28;99802;-75
2023/12/22 03:11:54;;;;;;;22.35;3.88;;;;;;;;;;4968451;28;100195;-75
2023/12/22 03:14:21;;;;;;;13.57;3.08;;;;;;;;;;4970528;28;98245;-75
2023/12/22 03:16:47;;;;;;;13.32;2.58;;;;;;;;;;4967766;28;100012;-75
2023/12/22 03:19:14;;;;;;;8.05;1.70;;;;;;;;;;4968289;28;98295;-75
2023/12/22 03:21:40;;;;;;;7.68;1.80;;;;;;;;;;4967498;28;98443;-76
2023/12/22 03:24:07;;;;;;;9.15;1.80;;;;;;;;;;4978351;28;98974;-75
2023/12/22 03:26:33;;;;;;;6.13;1.35;;;;;;;;;;4988475;28;98213;-75
2023/12/22 03:28:59;;;;;;;12.15;2.35;;;;;;;;;;4988155;28;98678;-74
2023/12/22 03:31:26;;;;;;;9.82;1.98;;;;;;;;;;4986819;28;100183;-74
2023/12/22 03:33:52;;;;;;;10.30;2.25;;;;;;;;;;4990708;28;98407;-76
2023/12/22 03:36:19;;;;;;;4.15;1.55;;;;;;;;;;4987585;28;99940;-75
2023/12/22 03:38:45;;;;;;;3.92;1.92;;;;;;;;;;4975851;28;98233;-76
2023/12/22 03:41:11;;;;;;;10.65;1.90;;;;;;;;;;4986598;28;99526;-75
2023/12/22 03:43:38;;;;;;;5.22;1.52;;;;;;;;;;4986927;28;100260;-75
2023/12/22 03:46:04;;;;;;;7.57;1.20;;;;;;;;;;4987750;28;98233;-74
2023/12/22 03:48:31;;;;;;;8.43;2.05;;;;;;;;;;4988162;28;98988;-76
2023/12/22 03:50:57;;;;;;;6.53;1.42;;;;;;;;;;4987084;28;100040;-76
2023/12/22 03:53:24;;;;;;;6.45;1.55;;;;;;;;;;4987337;28;98280;-74
2023/12/22 03:55:50;;;;;;;2.38;1.02;;;;;;;;;;4979229;28;100241;-77
2023/12/22 03:58:17;;;;;;;14.40;2.20;;;;;;;;;;4985880;28;98479;-74
2023/12/22 04:00:43;;;;;;;8.93;1.65;;;;;;;;;;4987435;28;99778;-76
2023/12/22 04:03:10;;;;;;;6.07;2.05;;;;;;;;;;4987254;28;99976;-74
2023/12/22 04:05:36;;;;;;;4.43;1.33;;;;;;;;;;4976320;28;98589;-76
2023/12/22 04:08:03;;;;;;;2.38;1.70;;;;;;;;;;4968551;28;98681;-76
2023/12/22 04:10:29;;;;;;;5.85;1.70;;;;;;;;;;4965356;28;99958;-74
2023/12/22 04:12:56;;;;;;;8.63;2.42;;;;;;;;;;4986102;28;98601;-77
2023/12/22 04:15:22;;;;;;;4.25;1.55;;;;;;;;;;4987294;28;99031;-75
2023/12/22 04:17:49;;;;;;;5.50;1.33;;;;;;;;;;4990657;28;100231;-74
2023/12/22 04:20:16;;;;;;;6.72;2.58;;;;;;;;;;4986553;28;99488;-75
2023/12/22 04:22:43;;;;;;;4.00;2.05;;;;;;;;;;4986530;28;100035;-75
2023/12/22 04:25:09;;;;;;;10.35;2.00;;;;;;;;;;4986489;28;98260;-75
2023/12/22 04:27:36;;;;;;;6.43;2.10;;;;;;;;;;4981248;28;99520;-75
2023/12/22 04:30:02;;;;;;;11.63;1.85;;;;;;;;;;4987180;28;99960;-74
2023/12/22 04:32:29;;;;;;;13.45;2.38;;;;;;;;;;4987313;28;98232;-76
2023/12/22 04:34:56;;;;;;;5.50;2.20;;;;;;;;;;4985560;28;99679;-75
2023/12/22 04:37:24;;;;;;;8.15;1.58;;;;;;;;;;4986814;28;99923;-76
2023/12/22 04:39:50;;;;;;;5.70;2.50;;;;;;;;;;4990032;28;98233;-75
2023/12/22 04:42:18;;;;;;;9.27;1.98;;;;;;;;;;4977872;28;100009;-76
2023/12/22 04:44:44;;;;;;;14.27;3.15;;;;;;;;;;4983963;28;98449;-75
2023/12/22 04:47:12;;;;;;;6.95;2.03;;;;;;;;;;4985375;28;98664;-75
2023/12/22 04:49:39;;;;;;;14.93;3.03;;;;;;;;;;4986744;28;100368;-75
2023/12/22 04:52:06;;;;;;;16.55;2.55;;;;;;;;;;4986613;28;98276;-74
2023/12/22 04:54:32;;;;;;;6.80;2.28;;;;;;;;;;4986227;28;99464;-75
2023/12/22 04:56:58;;;;;;;12.43;2.58;;;;;;;;;;4986829;28;100128;-76
2023/12/22 04:59:25;;;;;;;13.55;3.20;;;;;;;;;;4974829;28;99009;-75
2023/12/22 05:01:51;;;;;;;16.08;2.38;;;;;;;;;;4989390;28;98489;-75
2023/12/22 05:04:18;;;;;;;11.73;3.10;;;;;;;;;;4987127;28;98506;-75
2023/12/22 05:06:45;;;;;;;17.13;2.97;;;;;;;;;;4967140;28;99700;-75
2023/12/22 05:09:12;;;;;;;9.77;3.22;;;;;;;;;;4965049;28;102309;-75
2023/12/22 05:11:38;;;;;;;12.50;3.15;;;;;;;;;;4967260;28;98706;-75
2023/12/22 05:14:05;;;;;;;14.93;2.90;;;;;;;;;;4981714;28;99477;-74
2023/12/22 05:16:31;;;;;;;19.08;2.17;;;;;;;;;;4984377;28;99912;-74
2023/12/22 05:18:58;;;;;;;29.52;3.38;;;;;;;;;;4990216;28;98316;-74
2023/12/22 05:21:25;;;;;;;13.35;2.35;;;;;;;;;;4989956;28;98403;-75
2023/12/22 05:23:51;;;;;;;19.38;4.32;;;;;;;;;;4992278;28;98256;-75
2023/12/22 05:26:18;;;;;;;19.23;2.78;;;;;;;;;;4989901;28;98530;-75
2023/12/22 05:28:44;;;;;;;12.05;3.08;;;;;;;;;;4990372;28;99169;-75
2023/12/22 05:31:12;;;;;;;15.70;2.97;;;;;;;;;;4977266;28;99600;-75
2023/12/22 05:33:40;;;;;;;12.48;2.47;;;;;;;;;;4990214;28;100273;-75
2023/12/22 05:36:08;;;;;;;12.60;3.03;;;;;;;;;;4985602;28;100598;-74
2023/12/22 05:38:38;;;;;;;6.43;2.42;;;;;;;;;;4989763;28;98266;-76
2023/12/22 05:41:06;;;;;;;6.78;2.42;;;;;;;;;;4989823;28;99515;-76
2023/12/22 05:43:35;;;;;;;9.70;2.35;;;;;;;;;;4992432;28;100074;-74
2023/12/22 05:46:02;;;;;;;12.82;2.80;;;;;;;;;;4983874;28;99670;-75
2023/12/22 05:48:28;;;;;;;10.65;2.28;;;;;;;;;;4983632;28;100289;-75
2023/12/22 05:50:58;;;;;;;10.80;2.30;;;;;;;;;;4989216;28;98277;-76
2023/12/22 05:53:25;;;;;;;10.57;2.45;;;;;;;;;;4987414;28;99385;-74
2023/12/22 05:55:52;;;;;;;11.13;2.92;;;;;;;;;;4989567;28;99417;-75
2023/12/22 05:58:18;;;;;;;16.85;2.20;;;;;;;;;;4988989;28;98701;-74
2023/12/22 06:00:45;;;;;;;8.43;1.90;;;;;;;;;;4988935;28;99376;-74
2023/12/22 06:03:11;;;;;;;22.27;3.53;;;;;;;;;;4977898;28;98306;-75
2023/12/22 06:05:38;;;;;;;3.70;1.55;;;;;;;;;;4992229;28;98318;-76
2023/12/22 06:08:05;;;;;;;12.18;2.40;;;;;;;;;;4989044;28;99983;-76
2023/12/22 06:10:32;;;;;;;6.80;1.98;;;;;;;;;;4988185;28;98255;-76
2023/12/22 06:12:59;;;;;;;12.48;2.85;;;;;;;;;;4988685;28;99416;-75
2023/12/22 06:15:26;;;;;;;7.47;2.92;;;;;;;;;;4987311;28;99865;-75
2023/12/22 06:17:52;;;;;;;10.55;3.08;;;;;;;;;;4969920;28;98745;-74
2023/12/22 06:20:19;;;;;;;16.75;3.30;;;;;;;;;;4981524;28;99008;-75
2023/12/22 06:22:45;;;;;;;7.93;2.00;;;;;;;;;;4989199;28;99899;-76
2023/12/22 06:25:12;;;;;;;9.10;3.08;;;;;;;;;;4986882;28;98483;-75
2023/12/22 06:27:38;;;;;;;18.30;3.70;;;;;;;;;;4990372;28;98459;-75
2023/12/22 06:30:05;;;;;;;17.80;3.13;;;;;;;;;;4988764;28;98235;-74
2023/12/22 06:32:32;;;;;;;11.60;2.58;;;;;;;;;;4988533;28;100385;-75
2023/12/22 06:35:00;;;;;;;11.23;2.85;;;;;;;;;;4977033;28;99840;-74
2023/12/22 06:37:27;;;;;;;11.60;2.40;;;;;;;;;;4988978;28;98239;-74
2023/12/22 06:39:53;;;;;;;14.75;3.22;;;;;;;;;;4987384;28;99245;-75
2023/12/22 06:42:21;;;;;;;21.48;3.15;;;;;;;;;;4989123;28;99903;-74
2023/12/22 06:44:47;;;;;;;12.25;2.30;;;;;;;;;;4989135;28;98652;-75
2023/12/22 06:47:14;;;;;;;16.38;3.42;;;;;;;;;;4986138;28;99614;-75
2023/12/22 06:49:40;;;;;;;13.80;2.40;;;;;;;;;;4970763;28;99936;-75
2023/12/22 06:52:07;;;;;;;18.08;3.30;;;;;;;;;;4979799;28;99456;-76
2023/12/22 06:54:34;;;;;;;24.35;3.17;;;;;;;;;;4988115;28;99848;-75
2023/12/22 06:57:01;;;;;;;10.77;3.00;;;;;;;;;;4988603;28;98271;-75
2023/12/22 06:59:27;;;;;;;15.75;4.82;;;;;;;;;;4988349;28;98575;-75
2023/12/22 07:01:55;;;;;;;12.70;3.55;;;;;;;;;;4982310;28;100367;-74
2023/12/22 07:04:38;;;;;;;;;;;;;;;;;;4969301;28;98149;-74
2023/12/22 07:07:04;;;;;;;6.90;2.60;;;;;;;;;;4969574;28;128945;-76
2023/12/22 07:09:31;;;;;;;17.10;3.72;;;;;;;;;;4982195;28;101374;-75
2023/12/22 07:11:58;;;;;;;18.35;3.40;;;;;;;;;;4970635;28;98278;-74
2023/12/22 07:14:24;;;;;;;14.23;3.60;;;;;;;;;;4966624;28;100122;-75
2023/12/22 07:16:51;;;;;;;13.43;3.88;;;;;;;;;;4968334;28;98273;-75
2023/12/22 07:19:17;;;;;;;22.63;3.65;;;;;;;;;;4968317;28;99033;-76
2023/12/22 07:21:44;;;;;;;13.15;3.40;;;;;;;;;;4966697;28;99459;-76
2023/12/22 07:24:13;;;;;;;19.50;3.88;;;;;;;;;;4982190;28;98281;-75
2023/12/22 07:26:41;;;;;;;20.38;4.20;;;;;;;;;;4990352;28;99631;-75
2023/12/22 07:29:08;;;;;;;14.27;3.03;;;;;;;;;;4990266;28;98720;-75
2023/12/22 07:31:34;;;;;;;16.02;2.58;;;;;;;;;;4994723;28;98741;-75
2023/12/22 07:34:01;;;;;;;23.58;4.40;;;;;;;;;;4990693;28;99057;-75
2023/12/22 07:36:28;;;;;;;14.35;3.38;;;;;;;;;;4988740;28;98308;-75
2023/12/22 07:38:57;;;;;;;20.55;3.72;;;;;;;;;;4978104;28;98825;-75
2023/12/22 07:41:23;;;;;;;21.70;4.85;;;;;;;;;;4988395;28;100220;-75
2023/12/22 07:43:50;;;;;;;19.98;5.38;;;;;;;;;;4983976;28;98873;-75
2023/12/22 07:46:17;;;;;;;12.02;4.10;;;;;;;;;;4968696;28;99442;-76
2023/12/22 07:48:45;;;;;;;21.52;4.07;;;;;;;;;;4966829;28;99580;-74
2023/12/22 07:51:14;;;;;;;27.60;3.78;;;;;;;;;;4981051;28;98587;-76
2023/12/22 07:53:41;;;;;;;11.15;3.08;;;;;;;;;;4994806;28;99370;-75
2023/12/22 07:56:10;;;;;;;14.13;2.97;;;;;;;;;;4990685;28;98204;-75
2023/12/22 07:58:38;;;;;;;11.73;2.42;;;;;;;;;;4993054;28;99605;-78
2023/12/22 08:01:05;;;;;;;18.92;3.22;;;;;;;;;;4972528;28;100111;-79
2023/12/22 08:03:32;;;;;;;16.65;4.07;;;;;;;;;;4967353;28;98383;-75
2023/12/22 08:05:59;;;;;;;18.83;3.92;;;;;;;;;;4973546;28;99406;-75
2023/12/22 08:08:25;;;;;;;10.55;3.15;;;;;;;;;;4988481;28;99940;-77
2023/12/22 08:10:52;;;;;;;24.10;5.20;;;;;;;;;;4974677;28;98301;-75
2023/12/22 08:13:18;;;;;;;17.23;3.45;;;;;;;;;;4968114;28;99004;-74
2023/12/22 08:15:45;;;;;;;32.72;4.88;;;;;;;;;;4967046;28;99636;-74
2023/12/22 08:18:12;;;;;;;11.95;3.00;;;;;;;;;;4983619;28;99465;-74
2023/12/22 08:20:39;;;;;;;21.20;4.65;;;;;;;;;;4987446;28;99920;-76
2023/12/22 08:23:09;;;;;;;21.50;4.07;;;;;;;;;;4987887;28;99342;-77
2023/12/22 08:25:40;;;;;;;31.58;5.65;;;;;;;;;;4986892;28;98541;-75
2023/12/22 08:28:07;;;;;;;18.65;5.07;;;;;;;;;;4978345;28;100351;-75
2023/12/22 08:30:33;;;;;;;24.23;4.40;;;;;;;;;;4987109;28;98296;-74
2023/12/22 08:33:00;;;;;;;31.88;5.95;;;;;;;;;;4986585;28;99501;-75
2023/12/22 08:35:27;;;;;;;26.63;4.78;;;;;;;;;;4986954;28;100010;-77
2023/12/22 08:37:53;;;;;;;15.32;3.80;;;;;;;;;;4981640;28;98262;-74
2023/12/22 08:40:25;;;;;;;24.05;3.60;;;;;;;;;;4963272;28;99221;-76
2023/12/22 08:42:59;;;;;;;16.08;3.08;;;;;;;;;;4964661;28;98215;-77
2023/12/22 08:45:30;;;;;;;10.90;2.65;;;;;;;;;;4963339;28;99009;-75
2023/12/22 08:47:57;;;;;;;10.77;2.55;;;;;;;;;;4965216;28;100042;-74
2023/12/22 08:50:24;;;;;;;15.43;2.75;;;;;;;;;;4962061;28;99318;-78
2023/12/22 08:52:50;;;;;;;14.95;2.63;;;;;;;;;;4960277;28;99500;-76
2023/12/22 08:55:17;;;;;;;14.88;2.92;;;;;;;;;;4972113;28;99008;-75
2023/12/22 08:57:43;;;;;;;21.45;3.60;;;;;;;;;;4973826;28;98392;-77
2023/12/22 09:00:22;;;;;;;15.90;3.17;;;;;;;;;;4962178;28;99675;-76
2023/12/22 09:02:48;;;;;;;10.75;2.58;;;;;;;;;;4965818;28;98263;-76
2023/12/22 09:05:15;;;;;;;21.30;4.00;;;;;;;;;;4967846;28;100413;-76
2023/12/22 09:07:41;;;;;;;16.02;3.97;;;;;;;;;;4965011;28;100214;-75
2023/12/22 09:10:09;;;;;;;19.17;4.38;;;;;;;;;;4964498;28;99634;-75
2023/12/22 09:12:35;;;;;;;9.88;2.72;;;;;;;;;;4968126;28;98640;-75
2023/12/22 09:15:03;;;;;;;17.88;2.47;;;;;;;;;;4966657;28;100339;-74
2023/12/22 09:17:30;;;;;;;6.57;2.42;;;;;;;;;;4963476;28;99542;-74
2023/12/22 09:19:56;;;;;;;17.98;3.08;;;;;;;;;;4977417;28;99614;-77
2023/12/22 09:22:23;;;;;;;18.70;3.33;;;;;;;;;;4973009;28;100076;-75
2023/12/22 09:24:49;;;;;;;9.93;2.40;;;;;;;;;;4959375;28;101770;-76
2023/12/22 09:27:16;;;;;;;11.80;1.75;;;;;;;;;;4962873;28;100253;-75
2023/12/22 09:29:42;;;;;;;3.10;1.52;;;;;;;;;;4965231;28;98899;-77
2023/12/22 09:32:09;;;;;;;7.00;1.38;;;;;;;;;;4975427;28;99702;-77
2023/12/22 09:34:35;;;;;;;3.15;0.70;;;;;;;;;;4964776;28;99170;-82
2023/12/22 09:37:02;;;;;;;3.95;0.90;;;;;;;;;;4967122;28;98397;-78
2023/12/22 09:39:28;;;;;;;1.55;0.80;;;;;;;;;;4965427;28;98494;-78
2023/12/22 09:41:55;;;;;;;2.08;1.02;;;;;;;;;;4966495;28;100106;-77
2023/12/22 09:44:22;;;;;;;1.20;0.70;;;;;;;;;;4962394;28;99432;-77
2023/12/22 09:46:49;;;;;;;7.85;1.40;;;;;;;;;;4964801;28;98905;-75
2023/12/22 09:49:17;;;;;;;1.27;0.73;;;;;;;;;;4967433;28;99055;-74
2023/12/22 09:51:44;;;;;;;4.25;1.42;;;;;;;;;;4965638;28;99526;-75
2023/12/22 09:54:11;;;;;;;2.53;0.80;;;;;;;;;;4966300;28;100251;-74
2023/12/22 09:56:42;;;;;;;6.25;1.73;;;;;;;;;;4965615;28;98265;-74
2023/12/22 09:59:15;;;;;;;10.18;1.48;;;;;;;;;;4966931;28;99617;-76
2023/12/22 10:01:43;;;;;;;6.13;2.25;;;;;;;;;;4969714;28;100283;-75
2023/12/22 10:04:10;;;;;;;7.88;2.17;;;;;;;;;;4972404;28;98163;-74
2023/12/22 10:06:36;;;;;;;6.68;1.70;;;;;;;;;;4968842;28;99118;-75
2023/12/22 10:09:05;;;;;;;4.65;1.70;;;;;;;;;;4969570;28;98374;-75
2023/12/22 10:11:32;;;;;;;10.88;1.73;;;;;;;;;;4968975;28;99781;-74
2023/12/22 10:14:00;;;;;;;3.97;1.65;;;;;;;;;;4969601;28;98905;-74
2023/12/22 10:16:27;;;;;;;4.50;2.22;;;;;;;;;;4969605;28;98188;-74
2023/12/22 10:18:53;;;;;;;6.85;2.75;;;;;;;;;;4968942;28;99333;-75
2023/12/22 10:21:20;;;;;;;6.13;2.20;;;;;;;;;;4969130;28;100071;-74
2023/12/22 10:23:46;;;;;;;5.10;1.45;;;;;;;;;;4969877;28;98282;-73
2023/12/22 10:26:13;;;;;;;5.03;1.88;;;;;;;;;;4971476;28;99811;-74
2023/12/22 10:28:40;;;;;;;7.10;2.15;;;;;;;;;;4969628;28;98246;-75
2023/12/22 10:31:08;;;;;;;8.55;2.47;;;;;;;;;;4968449;28;99930;-75
2023/12/22 10:33:34;;;;;;;6.22;2.10;;;;;;;;;;4968509;28;99878;-75
2023/12/22 10:36:01;;;;;;;7.85;1.65;;;;;;;;;;4969528;28;98573;-76
2023/12/22 10:38:32;;;;;;;5.00;2.17;;;;;;;;;;4968963;28;98415;-76
2023/12/22 10:40:59;;;;;;;7.97;2.05;;;;;;;;;;4969542;28;99847;-75
2023/12/22 10:43:25;;;;;;;5.90;1.80;;;;;;;;;;4969146;28;98235;-76
2023/12/22 10:45:52;;;;;;;6.18;1.92;;;;;;;;;;4969803;28;99652;-77
2023/12/22 10:48:19;;;;;;;7.57;2.25;;;;;;;;;;4972641;28;99970;-77
2023/12/22 10:50:47;;;;;;;5.85;1.85;;;;;;;;;;4969413;28;98650;-78
2023/12/22 10:53:14;;;;;;;4.68;1.55;;;;;;;;;;4967302;28;100082;-78
2023/12/22 10:55:46;;;;;;;3.03;1.63;;;;;;;;;;4968508;28;98275;-76
2023/12/22 10:58:13;;;;;;;5.05;1.92;;;;;;;;;;4968613;28;99710;-76
2023/12/22 11:00:41;;;;;;;9.77;1.75;;;;;;;;;;4968291;28;99190;-76
2023/12/22 11:03:08;;;;;;;5.07;1.23;;;;;;;;;;4968286;28;98763;-75
2023/12/22 11:05:36;;;;;;;11.50;1.73;;;;;;;;;;4968875;28;99858;-75
2023/12/22 11:08:03;;;;;;;7.53;1.83;;;;;;;;;;4967833;28;100171;-76
2023/12/22 11:10:30;;;;;;;7.38;2.45;;;;;;;;;;4971960;28;98271;-76
2023/12/22 11:12:57;;;;;;;7.00;1.75;;;;;;;;;;4968652;28;99896;-76
2023/12/22 11:15:24;;;;;;;5.68;1.60;;;;;;;;;;4967606;28;98278;-75
2023/12/22 11:17:51;;;;;;;3.60;1.95;;;;;;;;;;4968586;28;98633;-76
2023/12/22 11:20:19;;;;;;;4.10;1.25;;;;;;;;;;4967202;28;99917;-75
2023/12/22 11:22:46;;;;;;;2.50;1.15;;;;;;;;;;4967831;28;98230;-75
2023/12/22 11:25:15;;;;;;;7.30;1.55;;;;;;;;;;4968370;28;99624;-76
2023/12/22 11:27:44;;;;;;;8.75;2.03;;;;;;;;;;4967791;28;100090;-76
2023/12/22 11:30:11;;;;;;;8.30;1.42;;;;;;;;;;4968270;28;98239;-76
2023/12/22 11:32:39;;;;;;;8.30;1.85;;;;;;;;;;4971480;28;99480;-75
2023/12/22 11:35:07;;;;;;;8.63;2.40;;;;;;;;;;4967634;28;98359;-76
2023/12/22 11:37:35;;;;;;;3.70;1.70;;;;;;;;;;4968724;28;99889;-74
2023/12/22 11:40:02;;;;;;;6.25;3.20;;;;;;;;;;4968013;28;100240;-77
2023/12/22 11:42:36;;;;;;;3.42;1.20;;;;;;;;;;4967575;28;98674;-74
2023/12/22 11:45:03;;;;;;;4.70;1.83;;;;;;;;;;4967546;28;99537;-75
2023/12/22 11:47:30;;;;;;;3.28;1.58;;;;;;;;;;4968100;28;99880;-76
2023/12/22 11:49:56;;;;;;;11.93;2.80;;;;;;;;;;4967550;28;98334;-74
2023/12/22 11:52:25;;;;;;;10.07;2.00;;;;;;;;;;4970455;28;99501;-76
2023/12/22 11:54:54;;;;;;;3.08;1.48;;;;;;;;;;4968010;28;98257;-75
2023/12/22 11:57:33;;;;;;;6.57;2.00;;;;;;;;;;4967021;28;99793;-75
2023/12/22 12:00:31;;;;;;;11.82;1.75;;;;;;;;;;4968062;28;100197;-75
2023/12/22 12:02:57;;;;;;;3.30;1.48;;;;;;;;;;4967558;28;98255;-75
2023/12/22 12:05:24;;;;;;;8.52;1.98;;;;;;;;;;4968124;28;99455;-76
2023/12/22 12:07:50;;;;;;;10.68;2.47;;;;;;;;;;4967889;28;99490;-75
2023/12/22 12:10:41;;;;;;;6.32;2.05;;;;;;;;;;4966272;28;98654;-75
2023/12/22 12:13:08;;;;;;;11.73;2.22;;;;;;;;;;4968903;28;98514;-75
2023/12/22 12:15:35;;;;;;;10.55;1.95;;;;;;;;;;4970761;28;100122;-75
2023/12/22 12:18:07;;;;;;;7.90;2.45;;;;;;;;;;4997705;28;99414;-77
2023/12/22 12:20:35;;;;;;;6.82;1.70;;;;;;;;;;4998426;28;99964;-74
2023/12/22 12:23:03;;;;;;;11.20;1.33;;;;;;;;;;4967276;28;98236;-75
2023/12/22 12:25:31;;;;;;;9.57;1.40;;;;;;;;;;4967048;28;99714;-74
2023/12/22 12:28:04;;;;;;;7.68;2.00;;;;;;;;;;4967894;28;100341;-75
2023/12/22 12:30:34;;;;;;;6.00;1.52;;;;;;;;;;4966764;28;98304;-76
2023/12/22 12:33:07;;;;;;;6.43;1.67;;;;;;;;;;4967062;28;98832;-74
2023/12/22 12:35:34;;;;;;;7.00;2.08;;;;;;;;;;4966823;28;99835;-74
2023/12/22 12:38:05;;;;;;;5.45;1.60;;;;;;;;;;4970074;28;98804;-75
2023/12/22 12:40:34;;;;;;;9.10;2.95;;;;;;;;;;4967407;28;99199;-75
2023/12/22 12:43:02;;;;;;;5.20;1.42;;;;;;;;;;4967098;28;98227;-75
2023/12/22 12:45:29;;;;;;;5.80;1.73;;;;;;;;;;4966921;28;99944;-75
2023/12/22 12:48:02;;;;;;;5.07;2.00;;;;;;;;;;4967219;28;98882;-75
2023/12/22 12:50:32;;;;;;;5.57;1.77;;;;;;;;;;4967527;28;98195;-74
2023/12/22 12:52:59;;;;;;;7.53;2.40;;;;;;;;;;4966563;28;99527;-73
2023/12/22 12:55:26;;;;;;;12.68;1.85;;;;;;;;;;4966995;28;100122;-74
2023/12/22 12:57:54;;;;;;;6.25;1.40;;;;;;;;;;4967399;28;98207;-74
2023/12/22 13:00:35;;;;;;;7.80;1.83;;;;;;;;;;4969118;28;98790;-73
2023/12/22 13:03:04;;;;;;;3.85;1.67;;;;;;;;;;4967267;28;98136;-73
2023/12/22 13:05:32;;;;;;;12.02;2.20;;;;;;;;;;4967283;28;99700;-72
2023/12/22 13:08:11;;;;;;;8.57;1.60;;;;;;;;;;4966104;28;100188;-74
2023/12/22 13:10:39;;;;;;;13.98;2.17;;;;;;;;;;4967233;28;98172;-73
2023/12/22 13:13:07;;;;;;;8.07;1.92;;;;;;;;;;4966133;28;99396;-75
2023/12/22 13:15:34;;;;;;;8.32;1.65;;;;;;;;;;4967113;28;100365;-72
2023/12/22 13:18:03;;;;;;;6.68;2.80;;;;;;;;;;4967289;28;98358;-75
2023/12/22 13:20:30;;;;;;;7.78;1.95;;;;;;;;;;4966389;28;98756;-73
2023/12/22 13:22:57;;;;;;;3.53;1.30;;;;;;;;;;4970187;28;99932;-74
2023/12/22 13:25:26;;;;;;;7.15;1.88;;;;;;;;;;4966090;28;99484;-74
2023/12/22 13:27:55;;;;;;;9.10;2.70;;;;;;;;;;4965834;28;99143;-74
2023/12/22 13:30:35;;;;;;;8.57;1.58;;;;;;;;;;4966679;28;98042;-73
2023/12/22 13:33:04;;;;;;;4.82;1.73;;;;;;;;;;4966524;28;99434;-73
2023/12/22 13:35:30;;;;;;;6.00;3.05;;;;;;;;;;4968285;28;99103;-73
2023/12/22 13:37:59;;;;;;;6.75;1.92;;;;;;;;;;4970903;28;98277;-73
2023/12/22 13:40:26;;;;;;;3.97;2.13;;;;;;;;;;4970036;28;100184;-74
2023/12/22 13:42:57;;;;;;;8.02;1.85;;;;;;;;;;4969514;28;100039;-74
2023/12/22 13:45:26;;;;;;;8.35;2.00;;;;;;;;;;4972998;28;98245;-74
2023/12/22 13:47:53;;;;;;;5.35;1.70;;;;;;;;;;4970570;28;99190;-73
2023/12/22 13:50:22;;;;;;;6.90;1.95;;;;;;;;;;4968511;28;98778;-74
2023/12/22 13:52:50;;;;;;;8.07;1.67;;;;;;;;;;4969700;28;99867;-73
2023/12/22 13:55:18;;;;;;;3.40;1.05;;;;;;;;;;4969020;28;100112;-75
2023/12/22 13:57:45;;;;;;;4.88;1.75;;;;;;;;;;4970073;28;98316;-75
2023/12/22 14:00:19;;;;;;;5.60;1.85;;;;;;;;;;4969474;28;98644;-73
2023/12/22 14:02:46;;;;;;;9.85;1.83;;;;;;;;;;4969005;28;100121;-75
2023/12/22 14:05:15;;;;;;;6.53;1.95;;;;;;;;;;4972955;28;98272;-74
2023/12/22 14:07:45;;;;;;;6.32;2.65;;;;;;;;;;4969962;28;100087;-76
2023/12/22 14:10:12;;;;;;;3.63;1.52;;;;;;;;;;4969046;28;98479;-75
2023/12/22 14:12:39;;;;;;;12.38;1.33;;;;;;;;;;4969497;28;99453;-75
2023/12/22 14:15:09;;;;;;;8.85;2.15;;;;;;;;;;4968859;28;100205;-75
2023/12/22 14:17:35;;;;;;;9.32;1.95;;;;;;;;;;4970076;28;98250;-74
2023/12/22 14:20:04;;;;;;;2.75;1.15;;;;;;;;;;4970893;28;98651;-76
2023/12/22 14:22:31;;;;;;;5.20;1.65;;;;;;;;;;5000671;28;99735;-74
2023/12/22 14:24:57;;;;;;;7.50;2.10;;;;;;;;;;4969161;28;98628;-75
2023/12/22 14:27:24;;;;;;;6.25;2.45;;;;;;;;;;4972635;28;99420;-75
2023/12/22 14:29:50;;;;;;;6.20;2.03;;;;;;;;;;4970203;28;98939;-74
2023/12/22 14:32:22;;;;;;;10.90;2.03;;;;;;;;;;4968741;28;99336;-75
2023/12/22 14:34:49;;;;;;;6.35;1.95;;;;;;;;;;4969218;28;99965;-73
2023/12/22 14:37:19;;;;;;;11.57;2.13;;;;;;;;;;4969294;28;98334;-76